createdAt,value
2022-07-28T00:04:16.526Z,52.06
2022-07-28T00:09:16.266Z,52.90
2022-07-28T00:14:17.089Z,52.95
2022-07-28T00:19:16.929Z,54.04
2022-07-28T00:24:22.438Z,54.11
2022-07-28T00:29:16.283Z,53.98
2022-07-28T00:34:16.734Z,54.57
2022-07-28T00:39:16.804Z,54.93
2022-07-28T00:44:17.007Z,55.54
2022-07-28T00:49:16.450Z,55.61
2022-07-28T00:54:16.670Z,56.03
2022-07-28T00:59:16.187Z,56.18
2022-07-28T01:02:51.880Z,56.71
2022-07-28T01:04:17.579Z,56.71
2022-07-28T01:09:30.152Z,56.81
2022-07-28T01:12:51.060Z,57.14
2022-07-28T01:14:23.125Z,57.14
2022-07-28T01:19:36.108Z,57.81
2022-07-28T01:24:23.993Z,58.00
2022-07-28T01:29:34.077Z,58.36
2022-07-28T01:34:22.462Z,58.65
2022-07-28T01:39:18.048Z,58.72
2022-07-28T01:44:20.753Z,58.99
2022-07-28T01:49:22.742Z,59.26
2022-07-28T01:54:18.430Z,59.73
2022-07-28T01:59:18.386Z,59.95
2022-07-28T02:04:20.626Z,60.35
2022-07-28T02:09:17.837Z,60.77
2022-07-28T02:14:19.995Z,61.01
2022-07-28T02:19:18.271Z,61.19
2022-07-28T02:24:20.041Z,61.25
2022-07-28T02:29:48.112Z,61.72
2022-07-28T02:34:24.007Z,62.21
2022-07-28T02:39:22.606Z,63.27
2022-07-28T02:44:22.983Z,64.48
2022-07-28T02:49:20.539Z,64.74
2022-07-28T02:54:18.710Z,65.49
2022-07-28T02:59:17.422Z,65.80
2022-07-28T03:04:26.997Z,65.81
2022-07-28T03:09:16.063Z,65.92
2022-07-28T03:14:22.043Z,66.52
2022-07-28T03:19:16.054Z,66.32
2022-07-28T03:24:20.035Z,66.57
2022-07-28T03:29:17.372Z,66.86
2022-07-28T03:34:16.829Z,68.44
2022-07-28T03:39:17.670Z,67.29
2022-07-28T03:44:17.732Z,67.07
2022-07-28T03:49:16.130Z,67.41
2022-07-28T03:54:16.914Z,66.59
2022-07-28T03:59:18.790Z,66.31
2022-07-28T04:04:16.724Z,66.18
2022-07-28T04:09:17.063Z,66.04
2022-07-28T04:14:17.174Z,65.62
2022-07-28T04:19:16.074Z,65.66
2022-07-28T04:24:17.009Z,65.15
2022-07-28T04:29:16.296Z,65.09
2022-07-28T04:34:16.701Z,65.09
2022-07-28T04:39:16.893Z,64.11
2022-07-28T04:44:16.518Z,63.61
2022-07-28T04:49:18.441Z,63.20
2022-07-28T04:54:17.223Z,62.80
2022-07-28T04:59:16.257Z,62.64
2022-07-28T05:04:16.808Z,62.09
2022-07-28T05:09:16.424Z,61.31
2022-07-28T05:14:16.669Z,60.70
2022-07-28T05:19:18.011Z,60.74
2022-07-28T05:24:16.439Z,59.95
2022-07-28T05:29:16.122Z,59.07
2022-07-28T05:34:16.882Z,58.67
2022-07-28T05:39:16.019Z,57.67
2022-07-28T05:44:17.234Z,56.18
2022-07-28T05:49:16.492Z,55.15
2022-07-28T05:54:16.501Z,54.01
2022-07-28T05:59:16.686Z,53.36
2022-07-28T06:04:26.845Z,52.92
2022-07-28T06:09:16.498Z,50.62
2022-07-28T06:14:19.842Z,50.55
2022-07-28T06:19:15.974Z,48.77
2022-07-28T06:21:26.058Z,47.37
2022-07-28T06:22:09.633Z,47.37
2022-07-28T06:24:16.270Z,47.37
2022-07-28T06:29:17.734Z,46.37
2022-07-28T06:34:16.465Z,46.33
2022-07-28T06:39:16.261Z,45.09
2022-07-28T06:44:17.043Z,44.01
2022-07-28T06:49:16.470Z,42.84
2022-07-28T06:54:16.965Z,42.20
2022-07-28T06:59:17.245Z,40.55
2022-07-28T07:04:17.184Z,40.31
2022-07-28T07:09:16.016Z,40.11
2022-07-28T07:14:16.614Z,38.64
2022-07-28T07:19:16.716Z,38.44
2022-07-28T07:24:17.429Z,37.38
2022-07-28T07:29:16.662Z,35.94
2022-07-28T07:34:16.570Z,35.33
2022-07-28T07:39:19.759Z,34.32
2022-07-28T07:44:16.291Z,34.16
2022-07-28T07:49:17.677Z,32.50
2022-07-28T07:54:16.690Z,31.69
2022-07-28T07:59:16.108Z,30.36
2022-07-28T08:04:17.278Z,30.30
2022-07-28T08:09:16.533Z,29.16
2022-07-28T08:14:16.797Z,29.26
2022-07-28T08:19:16.741Z,28.14
2022-07-28T08:24:16.372Z,28.62
2022-07-28T08:29:16.108Z,28.25
2022-07-28T08:34:31.676Z,27.47
2022-07-28T08:39:15.846Z,25.98
2022-07-28T08:44:29.849Z,26.66
2022-07-28T08:49:16.832Z,26.87
2022-07-28T08:54:24.986Z,26.23
2022-07-28T08:59:16.353Z,25.69
2022-07-28T09:04:21.500Z,25.78
2022-07-28T09:09:16.130Z,26.05
2022-07-28T09:14:16.846Z,26.32
2022-07-28T09:19:16.117Z,26.02
2022-07-28T09:24:36.259Z,25.67
2022-07-28T09:29:23.218Z,25.24
2022-07-28T09:34:17.640Z,25.81
2022-07-28T09:39:28.290Z,25.60
2022-07-28T09:44:18.107Z,25.79
2022-07-28T09:49:16.659Z,24.81
2022-07-28T09:54:17.500Z,24.50
2022-07-28T09:59:17.537Z,24.23
2022-07-28T10:04:28.488Z,24.32
2022-07-28T10:09:30.737Z,24.23
2022-07-28T10:14:20.392Z,24.56
2022-07-28T10:19:18.044Z,24.64
2022-07-28T10:24:21.453Z,24.76
2022-07-28T10:29:23.486Z,24.99
2022-07-28T10:34:20.921Z,25.63
2022-07-28T10:39:19.094Z,25.32
2022-07-28T10:44:19.508Z,26.12
2022-07-28T10:49:16.241Z,27.88
2022-07-28T10:54:25.038Z,27.41
2022-07-28T10:59:35.792Z,27.95
2022-07-28T11:04:35.986Z,28.91
2022-07-28T11:09:23.213Z,28.60
2022-07-28T11:14:31.245Z,28.81
2022-07-28T11:19:41.955Z,28.87
2022-07-28T11:24:18.008Z,30.28
2022-07-28T11:29:17.773Z,30.33
2022-07-28T11:34:18.494Z,30.68
2022-07-28T11:39:21.184Z,31.04
2022-07-28T11:44:27.118Z,31.04
2022-07-28T11:49:26.688Z,30.68
2022-07-28T11:54:21.479Z,30.88
2022-07-28T11:59:19.130Z,30.73
2022-07-28T12:04:18.032Z,30.45
2022-07-28T12:09:20.502Z,30.69
2022-07-28T12:14:17.551Z,31.28
2022-07-28T12:19:17.475Z,31.38
2022-07-28T12:24:19.523Z,31.26
2022-07-28T12:29:17.240Z,30.97
2022-07-28T12:34:16.453Z,30.92
2022-07-28T12:39:16.686Z,31.09
2022-07-28T12:44:16.602Z,30.89
2022-07-28T12:49:20.802Z,31.54
2022-07-28T12:54:16.083Z,31.69
2022-07-28T12:59:19.669Z,31.56
2022-07-28T13:04:17.771Z,31.47
2022-07-28T13:09:21.087Z,31.37
2022-07-28T13:14:16.804Z,31.05
2022-07-28T13:19:22.520Z,30.34
2022-07-28T13:24:18.104Z,30.12
2022-07-28T13:29:18.856Z,30.43
2022-07-28T13:34:16.447Z,31.06
2022-07-28T13:39:16.075Z,31.67
2022-07-28T13:44:16.664Z,31.60
2022-07-28T13:49:16.040Z,31.91
2022-07-28T13:54:16.337Z,31.88
2022-07-28T13:59:16.873Z,31.48
2022-07-28T14:04:17.432Z,31.45
2022-07-28T14:09:18.839Z,31.39
2022-07-28T14:14:17.032Z,31.64
2022-07-28T14:19:23.088Z,31.98
2022-07-28T14:24:16.825Z,31.76
2022-07-28T14:29:16.878Z,31.85
2022-07-28T14:34:16.345Z,31.93
2022-07-28T14:39:15.933Z,31.65
2022-07-28T14:44:23.904Z,31.70
2022-07-28T14:49:16.045Z,31.82
2022-07-28T14:54:19.146Z,32.07
2022-07-28T14:59:15.978Z,32.40
2022-07-28T15:04:16.623Z,32.26
2022-07-28T15:09:16.057Z,32.20
2022-07-28T15:14:17.049Z,32.50
2022-07-28T15:19:16.069Z,32.86
2022-07-28T15:24:17.203Z,32.99
2022-07-28T15:29:15.869Z,32.94
2022-07-28T15:34:16.642Z,32.94
2022-07-28T15:39:16.318Z,33.06
2022-07-28T15:44:17.491Z,33.16
2022-07-28T15:49:16.426Z,33.41
2022-07-28T15:54:18.072Z,33.73
2022-07-28T16:04:16.605Z,34.08
2022-07-28T16:09:17.401Z,34.34
2022-07-28T16:14:16.237Z,34.57
2022-07-28T16:19:46.165Z,34.57
2022-07-28T16:24:17.514Z,35.01
2022-07-28T16:29:18.306Z,35.32
2022-07-28T16:39:17.983Z,35.54
2022-07-28T16:44:16.327Z,35.20
2022-07-28T16:49:16.185Z,35.79
2022-07-28T16:54:17.580Z,36.05
2022-07-28T16:59:15.916Z,35.66
2022-07-28T17:04:21.361Z,35.69
2022-07-28T17:09:16.433Z,35.88
2022-07-28T17:14:18.253Z,36.04
2022-07-28T17:19:20.666Z,36.54
2022-07-28T17:24:16.447Z,36.57
2022-07-28T17:29:16.165Z,36.89
2022-07-28T17:34:16.633Z,37.27
2022-07-28T17:39:16.851Z,37.67
2022-07-28T17:44:16.694Z,37.80
2022-07-28T17:49:16.525Z,38.14
2022-07-28T17:54:18.653Z,38.21
2022-07-28T17:59:15.844Z,38.33
2022-07-28T18:04:16.101Z,38.86
2022-07-28T18:09:16.904Z,39.15
2022-07-28T18:14:17.936Z,39.28
2022-07-28T18:19:15.845Z,39.60
2022-07-28T18:24:17.477Z,39.77
2022-07-28T18:29:21.937Z,40.22
2022-07-28T18:34:16.355Z,41.07
2022-07-28T18:39:19.045Z,41.42
2022-07-28T18:44:16.442Z,41.72
2022-07-28T18:49:16.166Z,42.51
2022-07-28T18:54:23.248Z,43.10
2022-07-28T18:59:16.061Z,43.77
2022-07-28T19:04:16.548Z,44.39
2022-07-28T19:09:16.215Z,45.47
2022-07-28T19:14:16.648Z,45.91
2022-07-28T19:19:15.837Z,46.53
2022-07-28T19:24:17.241Z,46.71
2022-07-28T19:29:15.971Z,47.00
2022-07-28T19:34:16.358Z,47.74
2022-07-28T19:39:16.146Z,48.20
2022-07-28T19:44:16.704Z,48.93
2022-07-28T19:49:16.012Z,49.39
2022-07-28T19:54:22.157Z,49.83
2022-07-28T19:59:15.799Z,50.21
2022-07-28T20:04:19.311Z,51.25
2022-07-28T20:09:16.633Z,51.13
2022-07-28T20:14:16.353Z,51.92
2022-07-28T20:19:16.337Z,51.82
2022-07-28T20:24:19.333Z,52.08
2022-07-28T20:29:15.908Z,52.53
2022-07-28T20:34:16.298Z,53.43
2022-07-28T20:39:43.447Z,54.05
2022-07-28T20:44:27.836Z,54.55
2022-07-28T20:49:16.016Z,55.41
2022-07-28T20:54:16.187Z,55.98
2022-07-28T20:59:15.824Z,56.64
2022-07-28T21:04:18.572Z,57.18
2022-07-28T21:09:15.810Z,57.75
2022-07-28T21:14:16.718Z,57.96
2022-07-28T21:19:16.451Z,57.39
2022-07-28T21:24:16.009Z,57.53
2022-07-28T21:34:18.025Z,56.88
2022-07-28T21:39:15.965Z,56.78
2022-07-28T21:44:16.905Z,57.22
2022-07-28T21:49:15.872Z,60.04
2022-07-28T21:54:16.075Z,60.81
2022-07-28T21:59:16.463Z,60.70
2022-07-28T22:04:16.508Z,61.04
2022-07-28T22:09:15.970Z,61.00
2022-07-28T22:14:16.513Z,60.64
2022-07-28T22:19:15.736Z,60.90
2022-07-28T22:24:16.780Z,61.27
2022-07-28T22:29:16.505Z,61.50
2022-07-28T22:34:15.995Z,61.41
2022-07-28T22:39:15.779Z,61.67
2022-07-28T22:44:16.751Z,62.11
2022-07-28T22:49:15.713Z,62.27
2022-07-28T22:54:19.746Z,62.61
2022-07-28T22:59:17.872Z,63.28
2022-07-28T23:09:15.844Z,63.64
2022-07-28T23:14:16.243Z,63.77
2022-07-28T23:19:15.628Z,64.09
2022-07-28T23:24:16.825Z,64.12
2022-07-28T23:29:15.742Z,64.19
2022-07-28T23:31:53.183Z,64.25
2022-07-28T23:34:16.013Z,64.25
2022-07-28T23:39:39.693Z,64.84
2022-07-28T23:44:15.990Z,65.30
2022-07-28T23:49:15.784Z,66.20
2022-07-28T23:54:16.833Z,66.56
2022-07-28T23:59:15.741Z,66.94
